sensor_id;sensor_type;location;lat;lon;timestamp;pressure;altitude;pressure_sealevel;temperature;humidity
20037;BME280;10179;42.640;23.312;2023-02-15T00:01:17;94835.88;;;6.47;49.24
20037;BME280;10179;42.640;23.312;2023-02-15T00:03:42;94620.63;;;5.10;49.19
20037;BME280;10179;42.640;23.312;2023-02-15T00:06:07;94768.06;;;5.99;49.60
20037;BME280;10179;42.640;23.312;2023-02-15T00:08:33;94786.13;;;6.09;49.25
20037;BME280;10179;42.640;23.312;2023-02-15T00:11:13;94859.66;;;6.52;48.98
20037;BME280;10179;42.640;23.312;2023-02-15T00:13:39;94868.50;;;6.42;49.50
20037;BME280;10179;42.640;23.312;2023-02-15T00:16:10;94861.50;;;6.43;49.53
20037;BME280;10179;42.640;23.312;2023-02-15T00:18:37;94838.72;;;6.29;49.27
20037;BME280;10179;42.640;23.312;2023-02-15T00:21:08;94854.84;;;6.24;49.46
20037;BME280;10179;42.640;23.312;2023-02-15T00:23:34;94823.09;;;6.12;49.46
20037;BME280;10179;42.640;23.312;2023-02-15T00:26:08;94869.13;;;6.44;49.57
20037;BME280;10179;42.640;23.312;2023-02-15T00:28:34;94843.78;;;6.22;49.67
20037;BME280;10179;42.640;23.312;2023-02-15T00:31:07;94814.44;;;6.20;49.80
20037;BME280;10179;42.640;23.312;2023-02-15T00:33:33;94868.31;;;6.44;49.76
20037;BME280;10179;42.640;23.312;2023-02-15T00:35:59;94867.19;;;6.47;49.91
20037;BME280;10179;42.640;23.312;2023-02-15T00:38:29;94854.81;;;6.40;49.81
20037;BME280;10179;42.640;23.312;2023-02-15T00:40:57;94826.16;;;6.24;49.93
20037;BME280;10179;42.640;23.312;2023-02-15T00:43:23;94864.25;;;6.50;49.55
20037;BME280;10179;42.640;23.312;2023-02-15T00:45:49;94711.66;;;5.50;49.80
20037;BME280;10179;42.640;23.312;2023-02-15T00:48:14;94869.44;;;6.50;49.74
20037;BME280;10179;42.640;23.312;2023-02-15T00:50:39;94865.19;;;6.49;49.59
20037;BME280;10179;42.640;23.312;2023-02-15T00:53:05;94842.41;;;6.34;49.34
20037;BME280;10179;42.640;23.312;2023-02-15T00:55:31;94819.97;;;6.17;49.60
20037;BME280;10179;42.640;23.312;2023-02-15T00:57:56;94858.69;;;6.44;49.59
20037;BME280;10179;42.640;23.312;2023-02-15T01:00:21;94846.34;;;6.30;49.91
20037;BME280;10179;42.640;23.312;2023-02-15T01:02:47;94854.66;;;6.34;49.80
20037;BME280;10179;42.640;23.312;2023-02-15T01:05:12;94860.69;;;6.42;49.87
20037;BME280;10179;42.640;23.312;2023-02-15T01:07:38;94852.22;;;6.32;49.59
20037;BME280;10179;42.640;23.312;2023-02-15T01:10:05;94803.09;;;5.96;49.87
20037;BME280;10179;42.640;23.312;2023-02-15T01:12:31;94787.13;;;5.91;49.93
20037;BME280;10179;42.640;23.312;2023-02-15T01:14:57;94820.69;;;6.11;49.97
20037;BME280;10179;42.640;23.312;2023-02-15T01:17:22;94832.06;;;6.18;50.08
20037;BME280;10179;42.640;23.312;2023-02-15T01:19:48;94811.72;;;6.05;49.87
20037;BME280;10179;42.640;23.312;2023-02-15T01:22:13;94856.13;;;6.28;50.14
20037;BME280;10179;42.640;23.312;2023-02-15T01:24:38;94840.69;;;6.18;50.31
20037;BME280;10179;42.640;23.312;2023-02-15T01:27:04;94852.91;;;6.26;50.42
20037;BME280;10179;42.640;23.312;2023-02-15T01:29:29;94796.59;;;5.92;50.18
20037;BME280;10179;42.640;23.312;2023-02-15T01:31:55;94750.03;;;5.65;50.25
20037;BME280;10179;42.640;23.312;2023-02-15T01:34:20;94805.06;;;5.94;50.45
20037;BME280;10179;42.640;23.312;2023-02-15T01:36:45;94846.22;;;6.24;50.26
20037;BME280;10179;42.640;23.312;2023-02-15T01:39:11;94843.78;;;6.22;50.18
20037;BME280;10179;42.640;23.312;2023-02-15T01:41:36;94784.03;;;5.88;50.31
20037;BME280;10179;42.640;23.312;2023-02-15T01:44:02;94829.28;;;6.19;50.34
20037;BME280;10179;42.640;23.312;2023-02-15T01:46:46;94621.16;;;4.89;50.35
20037;BME280;10179;42.640;23.312;2023-02-15T01:49:17;94833.34;;;6.22;50.75
20037;BME280;10179;42.640;23.312;2023-02-15T01:51:46;94812.53;;;6.06;50.43
20037;BME280;10179;42.640;23.312;2023-02-15T01:54:21;94829.75;;;6.23;50.38
20037;BME280;10179;42.640;23.312;2023-02-15T01:56:49;94828.81;;;6.16;50.80
20037;BME280;10179;42.640;23.312;2023-02-15T01:59:19;94832.06;;;6.18;50.67
20037;BME280;10179;42.640;23.312;2023-02-15T02:01:45;94826.00;;;6.17;50.92
20037;BME280;10179;42.640;23.312;2023-02-15T02:04:35;94817.69;;;6.22;50.68
20037;BME280;10179;42.640;23.312;2023-02-15T02:07:04;94733.13;;;5.61;50.82
20037;BME280;10179;42.640;23.312;2023-02-15T02:09:30;94763.03;;;5.81;50.74
20037;BME280;10179;42.640;23.312;2023-02-15T02:11:55;94808.59;;;6.10;50.96
20037;BME280;10179;42.640;23.312;2023-02-15T02:14:22;94821.63;;;6.18;51.03
20037;BME280;10179;42.640;23.312;2023-02-15T02:22:06;94824.88;;;6.20;50.84
20037;BME280;10179;42.640;23.312;2023-02-15T02:27:34;94837.25;;;6.26;50.96
20037;BME280;10179;42.640;23.312;2023-02-15T02:30:32;94846.06;;;6.25;50.81
20037;BME280;10179;42.640;23.312;2023-02-15T02:37:06;94795.91;;;6.07;51.05
20037;BME280;10179;42.640;23.312;2023-02-15T02:39:39;94834.31;;;6.29;51.05
20037;BME280;10179;42.640;23.312;2023-02-15T02:45:25;94820.31;;;6.22;51.13
20037;BME280;10179;42.640;23.312;2023-02-15T02:47:51;94838.66;;;6.37;50.93
20037;BME280;10179;42.640;23.312;2023-02-15T02:50:23;94838.50;;;6.38;50.78
20037;BME280;10179;42.640;23.312;2023-02-15T02:52:51;94826.13;;;6.32;51.00
20037;BME280;10179;42.640;23.312;2023-02-15T02:57:51;94620.47;;;5.03;50.45
20037;BME280;10179;42.640;23.312;2023-02-15T03:00:19;94835.88;;;6.38;50.69
20037;BME280;10179;42.640;23.312;2023-02-15T03:02:47;94836.50;;;6.49;50.75
20037;BME280;10179;42.640;23.312;2023-02-15T03:05:17;94774.88;;;6.08;50.35
20037;BME280;10179;42.640;23.312;2023-02-15T03:07:48;94856.03;;;6.53;50.63
20037;BME280;10179;42.640;23.312;2023-02-15T03:10:15;94857.22;;;6.50;50.20
20037;BME280;10179;42.640;23.312;2023-02-15T03:12:43;94761.56;;;5.87;50.52
20037;BME280;10179;42.640;23.312;2023-02-15T03:15:15;94828.75;;;6.32;50.28
20037;BME280;10179;42.640;23.312;2023-02-15T03:17:45;94838.97;;;6.42;50.06
20037;BME280;10179;42.640;23.312;2023-02-15T03:20:38;94858.16;;;6.57;50.52
20037;BME280;10179;42.640;23.312;2023-02-15T03:23:06;94857.50;;;6.55;50.30
20037;BME280;10179;42.640;23.312;2023-02-15T03:25:44;94860.94;;;6.56;50.65
20037;BME280;10179;42.640;23.312;2023-02-15T03:28:17;94864.72;;;6.53;50.66
20037;BME280;10179;42.640;23.312;2023-02-15T03:30:45;94863.25;;;6.51;50.66
20037;BME280;10179;42.640;23.312;2023-02-15T03:33:14;94752.47;;;5.74;50.50
20037;BME280;10179;42.640;23.312;2023-02-15T03:35:49;94860.13;;;6.55;50.48
20037;BME280;10179;42.640;23.312;2023-02-15T03:38:25;94824.81;;;6.36;50.74
20037;BME280;10179;42.640;23.312;2023-02-15T03:40:54;94796.69;;;6.15;50.66
20037;BME280;10179;42.640;23.312;2023-02-15T03:46:15;94852.13;;;6.57;50.61
20037;BME280;10179;42.640;23.312;2023-02-15T03:48:47;94855.56;;;6.57;50.59
20037;BME280;10179;42.640;23.312;2023-02-15T03:51:17;94853.28;;;6.54;50.68
20037;BME280;10179;42.640;23.312;2023-02-15T03:54:10;94859.97;;;6.57;50.62
20037;BME280;10179;42.640;23.312;2023-02-15T03:56:39;94808.88;;;6.23;50.42
20037;BME280;10179;42.640;23.312;2023-02-15T03:59:05;94863.72;;;6.54;50.85
20037;BME280;10179;42.640;23.312;2023-02-15T04:02:15;94836.34;;;6.50;50.12
20037;BME280;10179;42.640;23.312;2023-02-15T04:04:46;94863.53;;;6.56;50.49
20037;BME280;10179;42.640;23.312;2023-02-15T04:07:12;94860.94;;;6.56;50.43
20037;BME280;10179;42.640;23.312;2023-02-15T04:09:38;94852.81;;;6.51;50.49
20037;BME280;10179;42.640;23.312;2023-02-15T04:12:23;94852.63;;;6.52;50.43
20037;BME280;10179;42.640;23.312;2023-02-15T04:14:48;94876.91;;;6.61;50.56
20037;BME280;10179;42.640;23.312;2023-02-15T04:17:32;94882.75;;;6.63;50.75
20037;BME280;10179;42.640;23.312;2023-02-15T04:19:58;94873.97;;;6.64;50.81
20037;BME280;10179;42.640;23.312;2023-02-15T04:22:42;94880.31;;;6.61;50.58
20037;BME280;10179;42.640;23.312;2023-02-15T04:25:26;94489.25;;;4.09;50.46
20037;BME280;10179;42.640;23.312;2023-02-15T04:27:53;94890.91;;;6.60;50.78
20037;BME280;10179;42.640;23.312;2023-02-15T04:30:21;94882.13;;;6.61;50.99
20037;BME280;10179;42.640;23.312;2023-02-15T04:32:47;94900.41;;;6.61;51.29
20037;BME280;10179;42.640;23.312;2023-02-15T04:35:13;94902.03;;;6.62;51.03
20037;BME280;10179;42.640;23.312;2023-02-15T04:37:40;94889.00;;;6.54;50.84
20037;BME280;10179;42.640;23.312;2023-02-15T04:40:08;94906.25;;;6.63;51.18
20037;BME280;10179;42.640;23.312;2023-02-15T04:42:34;94828.47;;;6.19;50.94
20037;BME280;10179;42.640;23.312;2023-02-15T04:44:59;94891.94;;;6.51;51.24
20037;BME280;10179;42.640;23.312;2023-02-15T04:47:25;94873.41;;;6.37;51.16
20037;BME280;10179;42.640;23.312;2023-02-15T04:49:50;94892.94;;;6.50;50.86
20037;BME280;10179;42.640;23.312;2023-02-15T04:52:16;94879.91;;;6.50;51.11
20037;BME280;10179;42.640;23.312;2023-02-15T04:54:43;94856.47;;;6.33;51.28
20037;BME280;10179;42.640;23.312;2023-02-15T04:57:08;94893.41;;;6.53;50.97
20037;BME280;10179;42.640;23.312;2023-02-15T04:59:33;94877.63;;;6.47;51.12
20037;BME280;10179;42.640;23.312;2023-02-15T05:01:59;94909.19;;;6.60;51.23
20037;BME280;10179;42.640;23.312;2023-02-15T05:04:24;94910.03;;;6.60;51.20
20037;BME280;10179;42.640;23.312;2023-02-15T05:06:50;94909.19;;;6.60;50.98
20037;BME280;10179;42.640;23.312;2023-02-15T05:09:15;94913.59;;;6.59;51.06
20037;BME280;10179;42.640;23.312;2023-02-15T05:11:41;94918.00;;;6.59;51.44
20037;BME280;10179;42.640;23.312;2023-02-15T05:14:06;94928.44;;;6.59;51.06
20037;BME280;10179;42.640;23.312;2023-02-15T05:16:32;94858.78;;;6.20;51.36
20037;BME280;10179;42.640;23.312;2023-02-15T05:18:57;94923.22;;;6.59;51.12
20037;BME280;10179;42.640;23.312;2023-02-15T05:21:23;94809.63;;;5.84;51.24
20037;BME280;10179;42.640;23.312;2023-02-15T05:23:48;94872.78;;;6.27;51.02
20037;BME280;10179;42.640;23.312;2023-02-15T05:26:19;94897.22;;;6.42;51.11
20037;BME280;10179;42.640;23.312;2023-02-15T05:29:04;94836.34;;;5.94;51.22
20037;BME280;10179;42.640;23.312;2023-02-15T05:31:31;94936.47;;;6.57;51.10
20037;BME280;10179;42.640;23.312;2023-02-15T05:33:57;94941.50;;;6.59;51.31
20037;BME280;10179;42.640;23.312;2023-02-15T05:36:22;94950.94;;;6.60;51.33
20037;BME280;10179;42.640;23.312;2023-02-15T05:38:48;94947.53;;;6.59;51.18
20037;BME280;10179;42.640;23.312;2023-02-15T05:41:13;94961.06;;;6.63;51.47
20037;BME280;10179;42.640;23.312;2023-02-15T05:43:39;94944.13;;;6.59;51.30
20037;BME280;10179;42.640;23.312;2023-02-15T05:46:05;94943.94;;;6.68;51.13
20037;BME280;10179;42.640;23.312;2023-02-15T05:48:32;94951.56;;;6.70;50.92
20037;BME280;10179;42.640;23.312;2023-02-15T05:50:58;94946.19;;;6.72;51.17
20037;BME280;10179;42.640;23.312;2023-02-15T05:53:24;94954.84;;;6.72;50.94
20037;BME280;10179;42.640;23.312;2023-02-15T05:55:49;94876.34;;;6.34;51.00
20037;BME280;10179;42.640;23.312;2023-02-15T05:58:15;94961.03;;;6.79;50.90
20037;BME280;10179;42.640;23.312;2023-02-15T06:00:40;94936.88;;;6.77;51.06
20037;BME280;10179;42.640;23.312;2023-02-15T06:03:06;94903.97;;;6.60;51.16
20037;BME280;10179;42.640;23.312;2023-02-15T06:05:31;94951.47;;;6.94;51.10
20037;BME280;10179;42.640;23.312;2023-02-15T06:07:56;94941.84;;;7.03;51.28
20037;BME280;10179;42.640;23.312;2023-02-15T06:10:22;94902.09;;;6.85;50.96
20037;BME280;10179;42.640;23.312;2023-02-15T06:12:47;94948.13;;;7.17;50.32
20037;BME280;10179;42.640;23.312;2023-02-15T06:15:13;94867.56;;;6.66;50.02
20037;BME280;10179;42.640;23.312;2023-02-15T06:17:41;94944.53;;;7.18;49.79
20037;BME280;10179;42.640;23.312;2023-02-15T06:20:07;94888.38;;;6.83;50.07
20037;BME280;10179;42.640;23.312;2023-02-15T06:22:33;94947.94;;;7.27;49.80
20037;BME280;10179;42.640;23.312;2023-02-15T06:24:58;94889.81;;;6.93;49.88
20037;BME280;10179;42.640;23.312;2023-02-15T06:27:24;94936.94;;;7.31;49.81
20037;BME280;10179;42.640;23.312;2023-02-15T06:29:49;94932.25;;;7.50;49.42
20037;BME280;10179;42.640;23.312;2023-02-15T06:32:15;94947.94;;;7.73;49.20
20037;BME280;10179;42.640;23.312;2023-02-15T06:34:40;94943.38;;;7.89;48.87
20037;BME280;10179;42.640;23.312;2023-02-15T06:37:05;94950.56;;;8.10;48.65
20037;BME280;10179;42.640;23.312;2023-02-15T06:39:33;94938.81;;;8.29;48.36
20037;BME280;10179;42.640;23.312;2023-02-15T06:41:59;94946.34;;;8.62;47.25
20037;BME280;10179;42.640;23.312;2023-02-15T06:44:24;94945.47;;;8.84;46.46
20037;BME280;10179;42.640;23.312;2023-02-15T06:46:49;94948.75;;;9.08;45.73
20037;BME280;10179;42.640;23.312;2023-02-15T06:49:15;94943.03;;;9.19;45.07
20037;BME280;10179;42.640;23.312;2023-02-15T06:51:40;94931.72;;;9.33;44.53
20037;BME280;10179;42.640;23.312;2023-02-15T06:54:06;94942.88;;;9.57;43.88
20037;BME280;10179;42.640;23.312;2023-02-15T06:56:31;94921.50;;;9.60;43.18
20037;BME280;10179;42.640;23.312;2023-02-15T06:58:57;94916.53;;;9.65;42.86
20037;BME280;10179;42.640;23.312;2023-02-15T07:01:22;94926.63;;;9.90;42.43
20037;BME280;10179;42.640;23.312;2023-02-15T07:03:49;94953.09;;;10.16;42.44
20037;BME280;10179;42.640;23.312;2023-02-15T07:06:15;94811.81;;;9.42;41.65
20037;BME280;10179;42.640;23.312;2023-02-15T07:08:40;94869.19;;;9.73;41.43
20037;BME280;10179;42.640;23.312;2023-02-15T07:11:06;94946.34;;;10.50;41.37
20037;BME280;10179;42.640;23.312;2023-02-15T07:13:50;94863.63;;;10.11;40.59
20037;BME280;10179;42.640;23.312;2023-02-15T07:16:17;94947.66;;;10.67;40.52
20037;BME280;10179;42.640;23.312;2023-02-15T07:18:43;94925.00;;;10.66;40.40
20037;BME280;10179;42.640;23.312;2023-02-15T07:21:08;94928.63;;;10.65;40.10
20037;BME280;10179;42.640;23.312;2023-02-15T07:23:38;94949.41;;;10.95;39.94
20037;BME280;10179;42.640;23.312;2023-02-15T07:26:05;94954.50;;;10.96;39.72
20037;BME280;10179;42.640;23.312;2023-02-15T07:28:32;94922.84;;;10.77;39.81
20037;BME280;10179;42.640;23.312;2023-02-15T07:30:58;94956.34;;;11.03;39.78
20037;BME280;10179;42.640;23.312;2023-02-15T07:33:23;94953.34;;;11.12;39.44
20037;BME280;10179;42.640;23.312;2023-02-15T07:35:54;94917.72;;;11.03;38.98
20037;BME280;10179;42.640;23.312;2023-02-15T07:38:20;94871.06;;;10.70;39.23
20037;BME280;10179;42.640;23.312;2023-02-15T07:40:46;94951.44;;;11.34;39.21
20037;BME280;10179;42.640;23.312;2023-02-15T07:43:12;94946.59;;;11.44;38.76
20037;BME280;10179;42.640;23.312;2023-02-15T07:45:40;94849.69;;;10.87;38.27
20037;BME280;10179;42.640;23.312;2023-02-15T07:48:06;94934.03;;;11.40;38.22
20037;BME280;10179;42.640;23.312;2023-02-15T07:50:32;94922.66;;;11.33;38.65
20037;BME280;10179;42.640;23.312;2023-02-15T07:52:57;94925.94;;;11.41;38.18
20037;BME280;10179;42.640;23.312;2023-02-15T07:55:23;94930.81;;;11.38;38.00
20037;BME280;10179;42.640;23.312;2023-02-15T07:57:50;94944.53;;;11.33;38.40
20037;BME280;10179;42.640;23.312;2023-02-15T08:00:18;94946.53;;;11.25;38.29
20037;BME280;10179;42.640;23.312;2023-02-15T08:02:49;94931.69;;;11.10;38.77
20037;BME280;10179;42.640;23.312;2023-02-15T08:05:35;94941.81;;;11.07;39.34
20037;BME280;10179;42.640;23.312;2023-02-15T08:08:00;94944.22;;;11.08;39.07
20037;BME280;10179;42.640;23.312;2023-02-15T08:10:26;94924.91;;;10.88;38.93
20037;BME280;10179;42.640;23.312;2023-02-15T08:13:11;94923.59;;;10.70;39.37
20037;BME280;10179;42.640;23.312;2023-02-15T08:15:36;94953.91;;;10.66;39.46
20037;BME280;10179;42.640;23.312;2023-02-15T08:18:02;94915.59;;;10.22;39.75
20037;BME280;10179;42.640;23.312;2023-02-15T08:20:27;94951.88;;;10.34;40.66
20037;BME280;10179;42.640;23.312;2023-02-15T08:22:53;94954.50;;;10.34;40.64
20037;BME280;10179;42.640;23.312;2023-02-15T08:25:18;94923.22;;;10.17;40.73
20037;BME280;10179;42.640;23.312;2023-02-15T08:27:43;94953.09;;;10.38;40.78
20037;BME280;10179;42.640;23.312;2023-02-15T08:30:09;94942.47;;;10.24;40.22
20037;BME280;10179;42.640;23.312;2023-02-15T08:32:35;94750.59;;;9.07;40.64
20037;BME280;10179;42.640;23.312;2023-02-15T08:35:00;94961.84;;;10.45;40.66
20037;BME280;10179;42.640;23.312;2023-02-15T08:37:26;94941.22;;;10.42;40.39
20037;BME280;10179;42.640;23.312;2023-02-15T08:39:51;94934.00;;;10.50;40.75
20037;BME280;10179;42.640;23.312;2023-02-15T08:42:17;94910.59;;;10.56;40.44
20037;BME280;10179;42.640;23.312;2023-02-15T08:44:42;94941.53;;;10.95;39.84
20037;BME280;10179;42.640;23.312;2023-02-15T08:47:08;94965.94;;;11.23;39.02
20037;BME280;10179;42.640;23.312;2023-02-15T08:49:33;94953.41;;;11.26;38.75
20037;BME280;10179;42.640;23.312;2023-02-15T08:51:58;94961.38;;;11.45;38.71
20037;BME280;10179;42.640;23.312;2023-02-15T08:54:24;94966.28;;;11.62;38.45
20037;BME280;10179;42.640;23.312;2023-02-15T08:56:50;94951.31;;;11.76;37.57
20037;BME280;10179;42.640;23.312;2023-02-15T08:59:18;94932.91;;;11.76;37.79
20037;BME280;10179;42.640;23.312;2023-02-15T09:01:44;94865.63;;;11.33;37.53
20037;BME280;10179;42.640;23.312;2023-02-15T09:04:10;94940.28;;;11.93;37.47
20037;BME280;10179;42.640;23.312;2023-02-15T09:06:39;94962.53;;;12.17;36.88
20037;BME280;10179;42.640;23.312;2023-02-15T09:09:05;94945.34;;;12.08;36.71
20037;BME280;10179;42.640;23.312;2023-02-15T09:11:34;94964.78;;;12.21;36.85
20037;BME280;10179;42.640;23.312;2023-02-15T09:14:02;94902.56;;;11.80;36.91
20037;BME280;10179;42.640;23.312;2023-02-15T09:16:30;94966.63;;;12.20;37.18
20037;BME280;10179;42.640;23.312;2023-02-15T09:18:56;94957.72;;;12.14;37.09
20037;BME280;10179;42.640;23.312;2023-02-15T09:21:27;94947.16;;;12.01;37.35
20037;BME280;10179;42.640;23.312;2023-02-15T09:23:59;94954.84;;;12.09;37.58
20037;BME280;10179;42.640;23.312;2023-02-15T09:26:26;94966.16;;;11.97;37.83
20037;BME280;10179;42.640;23.312;2023-02-15T09:28:55;94952.97;;;11.77;38.08
20037;BME280;10179;42.640;23.312;2023-02-15T09:31:23;94960.00;;;11.56;38.17
20037;BME280;10179;42.640;23.312;2023-02-15T09:33:48;94920.97;;;11.12;38.78
20037;BME280;10179;42.640;23.312;2023-02-15T09:38:43;94951.66;;;10.98;39.26
20037;BME280;10179;42.640;23.312;2023-02-15T09:44:11;94911.41;;;10.56;39.78
20037;BME280;10179;42.640;23.312;2023-02-15T09:52:49;94961.66;;;10.74;40.04
20037;BME280;10179;42.640;23.312;2023-02-15T09:58:24;94950.75;;;10.78;39.49
20037;BME280;10179;42.640;23.312;2023-02-15T10:01:15;94947.97;;;10.86;39.32
20037;BME280;10179;42.640;23.312;2023-02-15T10:04:08;94943.31;;;10.88;39.33
20037;BME280;10179;42.640;23.312;2023-02-15T10:10:14;94948.38;;;10.89;39.30
20037;BME280;10179;42.640;23.312;2023-02-15T10:21:11;94942.47;;;10.46;39.99
20037;BME280;10179;42.640;23.312;2023-02-15T10:24:22;94947.72;;;10.46;40.39
20037;BME280;10179;42.640;23.312;2023-02-15T10:26:50;94948.00;;;10.30;40.37
20037;BME280;10179;42.640;23.312;2023-02-15T10:29:27;94946.81;;;10.32;40.17
20037;BME280;10179;42.640;23.312;2023-02-15T10:34:51;94933.84;;;10.31;40.04
20037;BME280;10179;42.640;23.312;2023-02-15T10:43:24;94937.56;;;10.15;40.56
20037;BME280;10179;42.640;23.312;2023-02-15T10:46:09;94906.53;;;9.97;40.56
20037;BME280;10179;42.640;23.312;2023-02-15T10:51:02;94918.31;;;10.08;41.27
20037;BME280;10179;42.640;23.312;2023-02-15T10:53:57;94915.91;;;10.13;41.21
20037;BME280;10179;42.640;23.312;2023-02-15T10:56:38;94912.16;;;9.94;40.93
20037;BME280;10179;42.640;23.312;2023-02-15T11:02:02;94888.72;;;9.49;41.89
20037;BME280;10179;42.640;23.312;2023-02-15T11:07:33;94910.28;;;9.45;42.63
20037;BME280;10179;42.640;23.312;2023-02-15T11:12:45;94905.63;;;9.25;43.19
20037;BME280;10179;42.640;23.312;2023-02-15T11:15:22;94885.88;;;9.08;43.45
20037;BME280;10179;42.640;23.312;2023-02-15T11:17:56;94907.19;;;9.05;43.83
20037;BME280;10179;42.640;23.312;2023-02-15T11:22:52;94914.69;;;9.08;43.74
20037;BME280;10179;42.640;23.312;2023-02-15T11:25:23;94906.47;;;9.11;43.85
20037;BME280;10179;42.640;23.312;2023-02-15T11:27:50;94901.97;;;9.05;43.54
20037;BME280;10179;42.640;23.312;2023-02-15T11:30:26;94910.47;;;9.07;43.95
20037;BME280;10179;42.640;23.312;2023-02-15T11:32:57;94852.00;;;8.55;44.14
20037;BME280;10179;42.640;23.312;2023-02-15T11:35:33;94810.38;;;8.46;44.00
20037;BME280;10179;42.640;23.312;2023-02-15T11:43:26;94831.34;;;8.60;43.59
20037;BME280;10179;42.640;23.312;2023-02-15T11:45:54;94903.97;;;9.03;43.62
20037;BME280;10179;42.640;23.312;2023-02-15T11:48:20;94845.69;;;8.50;43.37
20037;BME280;10179;42.640;23.312;2023-02-15T11:50:46;94895.94;;;8.90;43.47
20037;BME280;10179;42.640;23.312;2023-02-15T11:53:14;94886.84;;;8.86;43.97
20037;BME280;10179;42.640;23.312;2023-02-15T11:55:43;94881.16;;;8.82;43.93
20037;BME280;10179;42.640;23.312;2023-02-15T12:03:52;94869.09;;;8.88;43.85
20037;BME280;10179;42.640;23.312;2023-02-15T12:06:28;94870.75;;;8.89;43.82
20037;BME280;10179;42.640;23.312;2023-02-15T12:11:34;94844.91;;;8.86;43.59
20037;BME280;10179;42.640;23.312;2023-02-15T12:14:04;94865.75;;;8.94;43.55
20037;BME280;10179;42.640;23.312;2023-02-15T12:16:44;94871.28;;;8.99;43.74
20037;BME280;10179;42.640;23.312;2023-02-15T12:19:32;94853.97;;;9.04;43.73
20037;BME280;10179;42.640;23.312;2023-02-15T12:22:03;94839.44;;;9.02;43.60
20037;BME280;10179;42.640;23.312;2023-02-15T12:24:36;94861.44;;;9.22;43.50
20037;BME280;10179;42.640;23.312;2023-02-15T12:27:03;94857.44;;;9.26;43.20
20037;BME280;10179;42.640;23.312;2023-02-15T12:29:39;94816.84;;;9.01;43.29
20037;BME280;10179;42.640;23.312;2023-02-15T12:32:33;94649.38;;;7.99;43.30
20037;BME280;10179;42.640;23.312;2023-02-15T12:35:13;94854.63;;;9.28;43.31
20037;BME280;10179;42.640;23.312;2023-02-15T12:37:52;94843.94;;;9.29;43.44
20037;BME280;10179;42.640;23.312;2023-02-15T12:40:29;94814.63;;;9.19;43.37
20037;BME280;10179;42.640;23.312;2023-02-15T12:42:55;94791.09;;;9.04;43.44
20037;BME280;10179;42.640;23.312;2023-02-15T12:45:32;94833.03;;;9.47;43.31
20037;BME280;10179;42.640;23.312;2023-02-15T12:48:18;94826.66;;;9.56;43.18
20037;BME280;10179;42.640;23.312;2023-02-15T12:50:45;94816.47;;;9.47;42.84
20037;BME280;10179;42.640;23.312;2023-02-15T12:53:18;94820.22;;;9.59;42.80
20037;BME280;10179;42.640;23.312;2023-02-15T12:55:57;94823.03;;;9.57;42.99
20037;BME280;10179;42.640;23.312;2023-02-15T12:58:26;94818.41;;;9.60;42.95
20037;BME280;10179;42.640;23.312;2023-02-15T13:01:16;94821.31;;;9.71;42.84
20037;BME280;10179;42.640;23.312;2023-02-15T13:04:02;94826.03;;;9.76;42.81
20037;BME280;10179;42.640;23.312;2023-02-15T13:06:31;94836.47;;;9.69;42.92
20037;BME280;10179;42.640;23.312;2023-02-15T13:09:13;94812.03;;;9.69;42.90
20037;BME280;10179;42.640;23.312;2023-02-15T13:11:41;94821.59;;;9.76;42.72
20037;BME280;10179;42.640;23.312;2023-02-15T13:14:17;94824.44;;;9.82;42.61
20037;BME280;10179;42.640;23.312;2023-02-15T13:16:47;94772.91;;;9.46;42.72
20037;BME280;10179;42.640;23.312;2023-02-15T13:19:17;94811.47;;;9.73;42.72
20037;BME280;10179;42.640;23.312;2023-02-15T13:21:48;94800.13;;;9.66;42.71
20037;BME280;10179;42.640;23.312;2023-02-15T13:24:24;94797.72;;;9.71;42.70
20037;BME280;10179;42.640;23.312;2023-02-15T13:26:52;94802.59;;;9.74;42.71
20037;BME280;10179;42.640;23.312;2023-02-15T13:29:27;94738.97;;;9.38;42.73
20037;BME280;10179;42.640;23.312;2023-02-15T13:31:55;94766.13;;;9.58;42.68
20037;BME280;10179;42.640;23.312;2023-02-15T13:34:25;94811.56;;;9.87;42.75
20037;BME280;10179;42.640;23.312;2023-02-15T13:39:46;94811.16;;;9.90;42.46
20037;BME280;10179;42.640;23.312;2023-02-15T13:44:58;94789.72;;;9.79;42.63
20037;BME280;10179;42.640;23.312;2023-02-15T13:47:33;94821.91;;;9.95;42.59
20037;BME280;10179;42.640;23.312;2023-02-15T14:06:18;94832.03;;;9.98;42.70
20037;BME280;10179;42.640;23.312;2023-02-15T14:10:03;94845.53;;;9.95;42.67
20037;BME280;10179;42.640;23.312;2023-02-15T14:12:20;94846.91;;;9.91;42.80
20037;BME280;10179;42.640;23.312;2023-02-15T14:17:49;94850.28;;;9.85;43.17
20037;BME280;10179;42.640;23.312;2023-02-15T14:20:53;94857.53;;;9.83;43.05
20037;BME280;10179;42.640;23.312;2023-02-15T14:26:25;94780.66;;;9.32;42.98
20037;BME280;10179;42.640;23.312;2023-02-15T14:29:18;94860.72;;;9.78;43.11
20037;BME280;10179;42.640;23.312;2023-02-15T14:31:49;94861.88;;;9.69;43.45
20037;BME280;10179;42.640;23.312;2023-02-15T14:34:34;94854.19;;;9.67;43.16
20037;BME280;10179;42.640;23.312;2023-02-15T14:37:10;94855.94;;;9.60;43.72
20037;BME280;10179;42.640;23.312;2023-02-15T14:42:33;94854.88;;;9.54;43.89
20037;BME280;10179;42.640;23.312;2023-02-15T14:47:42;94851.94;;;9.43;43.98
20037;BME280;10179;42.640;23.312;2023-02-15T14:50:35;94856.88;;;9.52;43.90
20037;BME280;10179;42.640;23.312;2023-02-15T15:01:30;94852.81;;;9.28;44.18
20037;BME280;10179;42.640;23.312;2023-02-15T15:04:00;94818.31;;;9.03;44.21
20037;BME280;10179;42.640;23.312;2023-02-15T15:06:32;94851.94;;;9.21;44.20
20037;BME280;10179;42.640;23.312;2023-02-15T15:09:10;94856.63;;;9.26;44.27
20037;BME280;10179;42.640;23.312;2023-02-15T15:11:40;94852.97;;;9.20;44.32
20037;BME280;10179;42.640;23.312;2023-02-15T15:14:06;94814.16;;;8.94;44.21
20037;BME280;10179;42.640;23.312;2023-02-15T15:19:02;94845.75;;;9.07;44.42
20037;BME280;10179;42.640;23.312;2023-02-15T15:35:33;94866.41;;;8.96;44.59